createdAt,value
2018-03-23T00:00:46.894Z,99.99
2018-03-23T00:01:46.860Z,99.99
2018-03-23T00:03:39.809Z,99.99
2018-03-23T00:04:39.755Z,99.99
2018-03-23T00:06:32.735Z,99.99
2018-03-23T00:07:32.786Z,99.99
2018-03-23T00:09:25.758Z,99.99
2018-03-23T00:10:25.655Z,99.99
2018-03-23T00:12:18.712Z,99.99
2018-03-23T00:13:18.611Z,99.99
2018-03-23T00:15:11.778Z,99.99
2018-03-23T00:16:11.571Z,99.99
2018-03-23T00:18:04.733Z,99.99
2018-03-23T00:19:04.532Z,99.99
2018-03-23T00:20:57.585Z,99.99
2018-03-23T00:21:57.482Z,99.99
2018-03-23T00:23:50.638Z,99.99
2018-03-23T00:24:50.433Z,99.99
2018-03-23T00:26:43.598Z,99.99
2018-03-23T00:27:43.393Z,99.99
2018-03-23T00:29:36.556Z,99.99
2018-03-23T00:30:36.342Z,99.99
2018-03-23T00:32:29.508Z,99.99
2018-03-23T00:33:29.301Z,99.99
2018-03-23T00:35:22.464Z,99.99
2018-03-23T00:36:22.256Z,99.99
2018-03-23T00:38:15.419Z,99.99
2018-03-23T00:39:15.208Z,99.99
2018-03-23T00:41:08.373Z,99.99
2018-03-23T00:42:08.166Z,99.99
2018-03-23T00:44:01.251Z,99.99
2018-03-23T00:45:01.131Z,99.99
2018-03-23T00:46:54.283Z,99.99
2018-03-23T00:47:54.077Z,99.99
2018-03-23T00:49:47.237Z,99.99
2018-03-23T00:50:47.031Z,99.99
2018-03-23T00:52:40.194Z,99.99
2018-03-23T00:53:39.988Z,99.99
2018-03-23T00:55:32.985Z,99.99
2018-03-23T00:56:32.942Z,99.99
2018-03-23T00:58:26.103Z,99.99
2018-03-23T00:59:25.896Z,99.99
2018-03-23T01:01:19.061Z,99.99
2018-03-23T01:02:18.850Z,99.99
2018-03-23T01:04:12.014Z,99.99
2018-03-23T01:05:11.806Z,99.99
2018-03-23T01:07:04.972Z,99.99
2018-03-23T01:08:04.768Z,99.99
2018-03-23T01:09:57.922Z,99.99
2018-03-23T01:10:57.722Z,99.99
2018-03-23T01:12:50.883Z,99.99
2018-03-23T01:13:50.675Z,99.99
2018-03-23T01:15:43.837Z,99.99
2018-03-23T01:16:43.631Z,99.99
2018-03-23T01:18:36.790Z,99.99
2018-03-23T01:19:36.585Z,99.99
2018-03-23T01:21:29.749Z,99.99
2018-03-23T01:22:29.541Z,99.99
2018-03-23T01:24:22.600Z,99.99
2018-03-23T01:25:22.495Z,99.99
2018-03-23T01:27:15.655Z,99.99
2018-03-23T01:28:15.453Z,99.99
2018-03-23T01:30:08.453Z,99.99
2018-03-23T01:31:08.407Z,99.99
2018-03-23T01:33:01.576Z,99.99
2018-03-23T01:34:01.361Z,99.99
2018-03-23T01:35:54.421Z,99.99
2018-03-23T01:36:54.327Z,99.99
2018-03-23T01:38:47.376Z,99.99
2018-03-23T01:39:47.272Z,99.99
2018-03-23T01:41:40.329Z,99.99
2018-03-23T01:42:40.226Z,99.99
2018-03-23T01:44:33.184Z,99.99
2018-03-23T01:45:33.088Z,99.99
2018-03-23T01:47:26.036Z,99.99
2018-03-23T01:48:25.936Z,99.99
2018-03-23T01:50:18.890Z,99.99
2018-03-23T01:51:18.787Z,99.99
2018-03-23T01:53:11.741Z,99.99
2018-03-23T01:54:11.642Z,99.99
2018-03-23T01:56:05.619Z,99.99
2018-03-23T01:57:04.495Z,99.99
2018-03-23T01:58:57.450Z,99.99
2018-03-23T01:59:57.345Z,99.99
2018-03-23T02:01:50.299Z,99.99
2018-03-23T02:02:50.197Z,99.99
2018-03-23T02:04:43.151Z,99.99
2018-03-23T02:05:43.054Z,99.99
2018-03-23T02:07:36.005Z,99.99
2018-03-23T02:08:35.880Z,99.99
2018-03-23T02:10:28.858Z,99.99
2018-03-23T02:11:28.755Z,99.99
2018-03-23T02:13:21.710Z,99.99
2018-03-23T02:14:21.607Z,99.99
2018-03-23T02:16:14.565Z,99.99
2018-03-23T02:17:14.465Z,99.99
2018-03-23T02:19:07.415Z,99.99
2018-03-23T02:20:07.316Z,99.99
2018-03-23T02:22:00.369Z,99.99
2018-03-23T02:23:00.271Z,99.99
2018-03-23T02:24:53.322Z,99.99
2018-03-23T02:25:53.221Z,99.99
2018-03-23T02:27:46.284Z,99.99
2018-03-23T02:28:46.175Z,99.99
2018-03-23T02:30:39.238Z,99.99
2018-03-23T02:31:39.132Z,99.99
2018-03-23T02:33:32.143Z,99.99
2018-03-23T02:34:32.094Z,99.99
2018-03-23T02:36:25.248Z,99.99
2018-03-23T02:37:25.051Z,99.99
2018-03-23T02:39:18.104Z,99.99
2018-03-23T02:40:17.998Z,99.99
2018-03-23T02:42:11.169Z,99.99
2018-03-23T02:43:10.957Z,99.99
2018-03-23T02:45:04.117Z,99.99
2018-03-23T02:46:03.912Z,99.99
2018-03-23T02:47:57.070Z,99.99
2018-03-23T02:48:56.868Z,99.99
2018-03-23T02:50:50.027Z,99.99
2018-03-23T02:51:49.821Z,99.99
2018-03-23T02:53:42.983Z,99.99
2018-03-23T02:54:42.778Z,99.99
2018-03-23T02:56:35.939Z,99.99
2018-03-23T02:57:35.736Z,99.99
2018-03-23T02:59:28.898Z,99.99
2018-03-23T03:00:28.687Z,99.99
2018-03-23T03:02:21.850Z,99.99
2018-03-23T03:03:21.642Z,99.99
2018-03-23T03:05:14.804Z,99.99
2018-03-23T03:06:14.597Z,99.99
2018-03-23T03:08:07.760Z,99.99
2018-03-23T03:09:07.553Z,99.99
2018-03-23T03:11:00.724Z,99.99
2018-03-23T03:12:00.507Z,99.99
2018-03-23T03:13:53.672Z,99.99
2018-03-23T03:14:53.464Z,99.99
2018-03-23T03:16:46.627Z,99.99
2018-03-23T03:17:46.418Z,99.99
2018-03-23T03:19:39.584Z,99.99
2018-03-23T03:20:39.372Z,99.99
2018-03-23T03:22:32.535Z,99.99
2018-03-23T03:23:32.328Z,99.99
2018-03-23T03:25:25.497Z,99.99
2018-03-23T03:26:25.284Z,99.99
2018-03-23T03:28:18.444Z,99.99
2018-03-23T03:29:18.238Z,99.99
2018-03-23T03:31:11.404Z,99.99
2018-03-23T03:32:11.194Z,99.99
2018-03-23T03:34:04.356Z,99.99
2018-03-23T03:35:04.149Z,99.99
2018-03-23T03:36:57.314Z,99.99
2018-03-23T03:37:57.106Z,99.99
2018-03-23T03:39:50.269Z,99.99
2018-03-23T03:40:50.061Z,99.99
2018-03-23T03:42:43.224Z,99.99
2018-03-23T03:43:43.015Z,99.99
2018-03-23T03:45:36.178Z,99.99
2018-03-23T03:46:35.972Z,99.99
2018-03-23T03:48:29.143Z,99.99
2018-03-23T03:49:28.929Z,99.99
2018-03-23T03:51:21.994Z,99.99
2018-03-23T03:52:21.883Z,99.99
2018-03-23T03:54:14.940Z,99.99
2018-03-23T03:55:14.837Z,99.99
2018-03-23T03:57:07.896Z,99.99
2018-03-23T03:58:07.793Z,99.99
2018-03-23T04:00:00.848Z,99.99
2018-03-23T04:01:00.739Z,99.99
2018-03-23T04:02:53.709Z,99.99
2018-03-23T04:03:53.605Z,99.99
2018-03-23T04:05:46.559Z,99.99
2018-03-23T04:06:46.460Z,99.99
2018-03-23T04:08:39.428Z,99.99
2018-03-23T04:09:39.311Z,99.99
2018-03-23T04:11:32.264Z,99.99
2018-03-23T04:12:32.165Z,99.99
2018-03-23T04:14:25.118Z,99.99
2018-03-23T04:15:25.015Z,99.99
2018-03-23T04:17:18.997Z,99.99
2018-03-23T04:18:17.870Z,99.99
2018-03-23T04:20:10.827Z,99.99
2018-03-23T04:21:10.723Z,99.99
2018-03-23T04:23:03.676Z,99.99
2018-03-23T04:24:03.574Z,99.99
2018-03-23T04:25:56.531Z,99.99
2018-03-23T04:26:56.430Z,99.99
2018-03-23T04:28:49.382Z,99.99
2018-03-23T04:29:49.280Z,99.99
2018-03-23T04:31:42.236Z,99.99
2018-03-23T04:32:42.133Z,99.99
2018-03-23T04:34:35.089Z,99.99
2018-03-23T04:35:34.986Z,99.99
2018-03-23T04:37:27.943Z,99.99
2018-03-23T04:38:27.841Z,99.99
2018-03-23T04:40:20.794Z,99.99
2018-03-23T04:41:20.693Z,99.99
2018-03-23T04:43:13.748Z,99.99
2018-03-23T04:44:13.643Z,99.99
2018-03-23T04:46:06.707Z,99.99
2018-03-23T04:47:06.601Z,99.99
2018-03-23T04:48:59.661Z,99.99
2018-03-23T04:49:59.554Z,99.99
2018-03-23T04:51:52.718Z,99.99
2018-03-23T04:52:52.512Z,99.99
2018-03-23T04:54:45.674Z,99.99
2018-03-23T04:55:45.466Z,99.99
2018-03-23T04:57:38.528Z,99.99
2018-03-23T04:58:38.421Z,99.99
2018-03-23T05:00:31.583Z,99.99
2018-03-23T05:01:31.462Z,99.99
2018-03-23T05:03:24.537Z,99.99
2018-03-23T05:04:24.332Z,99.99
2018-03-23T05:06:17.494Z,99.99
2018-03-23T05:07:17.285Z,99.99
2018-03-23T05:09:10.449Z,99.99
2018-03-23T05:10:10.241Z,99.99
2018-03-23T05:12:03.408Z,99.99
2018-03-23T05:13:03.198Z,99.99
2018-03-23T05:14:56.359Z,99.99
2018-03-23T05:15:56.151Z,99.99
2018-03-23T05:17:49.315Z,99.99
2018-03-23T05:18:49.110Z,99.99
2018-03-23T05:20:42.269Z,99.99
2018-03-23T05:21:42.061Z,99.99
2018-03-23T05:23:35.222Z,99.99
2018-03-23T05:24:35.020Z,99.99
2018-03-23T05:26:28.180Z,99.99
2018-03-23T05:27:27.975Z,99.99
2018-03-23T05:29:21.136Z,99.99
2018-03-23T05:30:20.943Z,99.99
2018-03-23T05:32:14.094Z,99.99
2018-03-23T05:33:13.883Z,99.99
2018-03-23T05:35:07.046Z,99.99
2018-03-23T05:36:06.838Z,99.99
2018-03-23T05:38:00.008Z,99.99
2018-03-23T05:38:59.817Z,99.99
2018-03-23T05:40:52.956Z,99.99
2018-03-23T05:41:52.749Z,99.99
2018-03-23T05:43:45.916Z,99.99
2018-03-23T05:44:45.703Z,99.99
2018-03-23T05:46:38.704Z,99.99
2018-03-23T05:47:38.849Z,99.99
2018-03-23T05:49:31.824Z,99.99
2018-03-23T05:50:31.614Z,99.99
2018-03-23T05:52:24.781Z,99.99
2018-03-23T05:53:24.571Z,99.99
2018-03-23T05:55:17.741Z,99.99
2018-03-23T05:56:17.524Z,99.99
2018-03-23T05:58:10.688Z,99.99
2018-03-23T05:59:10.479Z,99.99
2018-03-23T06:01:03.644Z,99.99
2018-03-23T06:02:03.436Z,99.99
2018-03-23T06:03:56.602Z,99.99
2018-03-23T06:04:56.392Z,99.99
2018-03-23T06:06:49.556Z,99.99
2018-03-23T06:07:49.345Z,99.99
2018-03-23T06:09:42.406Z,99.99
2018-03-23T06:10:42.325Z,99.99
2018-03-23T06:12:35.371Z,99.99
2018-03-23T06:13:35.257Z,99.99
2018-03-23T06:15:28.324Z,99.99
2018-03-23T06:16:28.211Z,99.99
2018-03-23T06:18:21.271Z,99.99
2018-03-23T06:19:21.168Z,99.99
2018-03-23T06:21:14.127Z,99.99
2018-03-23T06:22:14.027Z,99.99
2018-03-23T06:24:06.979Z,99.99
2018-03-23T06:25:06.896Z,99.99
2018-03-23T06:26:59.836Z,99.99
2018-03-23T06:27:59.737Z,99.99
2018-03-23T06:29:52.688Z,99.99
2018-03-23T06:30:52.589Z,99.99
2018-03-23T06:32:45.541Z,99.99
2018-03-23T06:33:45.440Z,99.99
2018-03-23T06:35:38.395Z,99.99
2018-03-23T06:36:38.290Z,99.99
2018-03-23T06:38:31.247Z,99.99
2018-03-23T06:39:31.143Z,99.99
2018-03-23T06:41:24.110Z,99.99
2018-03-23T06:42:23.996Z,99.99
2018-03-23T06:44:16.954Z,99.99
2018-03-23T06:45:16.848Z,99.99
2018-03-23T06:47:09.877Z,99.99
2018-03-23T06:48:09.702Z,99.99
2018-03-23T06:50:02.656Z,99.99
2018-03-23T06:51:02.555Z,99.99
2018-03-23T06:52:55.513Z,99.99
2018-03-23T06:53:55.409Z,99.99
2018-03-23T06:55:48.491Z,99.99
2018-03-23T06:56:48.360Z,99.99
2018-03-23T06:58:41.258Z,99.99
2018-03-23T06:59:41.216Z,99.99
2018-03-23T07:01:34.283Z,99.99
2018-03-23T07:02:34.174Z,99.99
2018-03-23T07:04:27.229Z,99.99
2018-03-23T07:05:27.126Z,99.99
2018-03-23T07:07:20.184Z,99.99
2018-03-23T07:08:20.083Z,99.99
2018-03-23T07:10:14.167Z,99.99
2018-03-23T07:11:13.972Z,99.99
2018-03-23T07:13:07.118Z,99.99
2018-03-23T07:14:06.921Z,99.99
2018-03-23T07:16:00.077Z,99.99
2018-03-23T07:16:59.873Z,99.99
2018-03-23T07:18:53.033Z,99.99
2018-03-23T07:19:52.825Z,99.99
2018-03-23T07:21:45.983Z,99.99
2018-03-23T07:22:45.767Z,99.99
2018-03-23T07:24:38.941Z,99.99
2018-03-23T07:25:38.765Z,99.99
2018-03-23T07:27:31.894Z,99.99
2018-03-23T07:28:31.690Z,99.99
2018-03-23T07:30:24.862Z,99.99
2018-03-23T07:31:24.641Z,99.99
2018-03-23T07:33:17.831Z,99.99
2018-03-23T07:34:17.599Z,99.99
2018-03-23T07:36:10.763Z,99.99
2018-03-23T07:37:10.552Z,99.99
2018-03-23T07:39:03.724Z,99.99
2018-03-23T07:40:03.508Z,99.99
2018-03-23T07:41:56.673Z,99.99
2018-03-23T07:42:56.466Z,99.99
2018-03-23T07:44:49.626Z,99.99
2018-03-23T07:45:49.417Z,99.99
2018-03-23T07:47:42.581Z,99.99
2018-03-23T07:48:42.382Z,99.99
2018-03-23T07:50:35.536Z,99.99
2018-03-23T07:51:35.334Z,99.99
2018-03-23T07:53:28.497Z,99.99
2018-03-23T07:54:28.302Z,99.99
2018-03-23T07:56:21.448Z,99.99
2018-03-23T07:57:21.243Z,99.99
2018-03-23T07:59:14.408Z,99.99
2018-03-23T08:00:14.200Z,99.99
2018-03-23T08:02:07.359Z,99.99
2018-03-23T08:03:07.152Z,99.99
2018-03-23T08:05:00.315Z,99.69
2018-03-23T08:06:00.108Z,99.78
2018-03-23T08:07:53.278Z,99.30
2018-03-23T08:08:53.061Z,98.74
2018-03-23T08:10:46.226Z,97.88
2018-03-23T08:11:46.018Z,97.60
2018-03-23T08:13:39.120Z,97.50
2018-03-23T08:14:38.897Z,97.78
2018-03-23T08:16:32.045Z,96.84
2018-03-23T08:17:31.827Z,97.03
2018-03-23T08:19:24.989Z,96.55
2018-03-23T08:20:24.781Z,96.17
2018-03-23T08:22:17.951Z,95.60
2018-03-23T08:23:17.736Z,96.36
2018-03-23T08:25:10.797Z,95.56
2018-03-23T08:26:10.695Z,94.27
2018-03-23T08:28:03.741Z,95.46
2018-03-23T08:29:03.650Z,94.42
2018-03-23T08:30:56.550Z,94.70
2018-03-23T08:31:56.507Z,94.79
2018-03-23T08:33:49.459Z,94.60
2018-03-23T08:34:49.362Z,94.51
2018-03-23T08:36:42.257Z,93.65
2018-03-23T08:37:42.295Z,92.80
2018-03-23T08:39:35.166Z,91.18
2018-03-23T08:40:35.069Z,91.66
2018-03-23T08:42:28.014Z,92.89
2018-03-23T08:43:27.917Z,93.18
2018-03-23T08:45:20.892Z,92.99
2018-03-23T08:46:20.771Z,92.13
2018-03-23T08:48:13.721Z,91.47
2018-03-23T08:49:13.625Z,91.75
2018-03-23T08:51:06.576Z,91.37
2018-03-23T08:52:06.478Z,91.18
2018-03-23T08:53:59.430Z,91.94
2018-03-23T08:54:59.329Z,91.56
2018-03-23T08:56:52.284Z,92.22
2018-03-23T08:57:52.183Z,91.28
2018-03-23T08:59:45.066Z,90.04
2018-03-23T09:00:45.032Z,90.61
2018-03-23T09:02:37.983Z,90.80
2018-03-23T09:03:37.886Z,91.37
2018-03-23T09:05:30.840Z,91.47
2018-03-23T09:06:30.750Z,91.18
2018-03-23T09:08:23.694Z,90.61
2018-03-23T09:09:23.594Z,91.18
2018-03-23T09:11:16.543Z,90.80
2018-03-23T09:12:16.445Z,90.99
2018-03-23T09:14:09.403Z,91.37
2018-03-23T09:15:09.297Z,91.18
2018-03-23T09:17:02.257Z,91.18
2018-03-23T09:18:02.150Z,91.28
2018-03-23T09:19:55.109Z,91.70
2018-03-23T09:20:55.012Z,90.94
2018-03-23T09:22:47.963Z,90.37
2018-03-23T09:23:47.862Z,89.32
2018-03-23T09:25:40.842Z,89.75
2018-03-23T09:26:40.710Z,91.13
2018-03-23T09:28:33.664Z,89.99
2018-03-23T09:29:33.563Z,89.80
2018-03-23T09:33:23.196Z,90.28
2018-03-23T09:33:58.169Z,90.14
2018-03-23T09:35:51.119Z,90.75
2018-03-23T09:36:51.024Z,90.42
2018-03-23T09:38:43.972Z,90.33
2018-03-23T09:39:43.873Z,89.66
2018-03-23T09:41:36.828Z,90.42
2018-03-23T09:42:36.728Z,90.80
2018-03-23T09:44:29.679Z,91.75
2018-03-23T09:45:29.572Z,92.32
2018-03-23T09:47:22.534Z,92.41
2018-03-23T09:48:22.431Z,93.37
2018-03-23T09:50:15.378Z,92.61
2018-03-23T09:51:15.285Z,92.32
2018-03-23T09:53:08.240Z,93.27
2018-03-23T09:54:08.136Z,92.08
2018-03-23T09:56:01.098Z,92.37
2018-03-23T09:57:00.994Z,91.80
2018-03-23T09:58:53.943Z,92.27
2018-03-23T09:59:53.842Z,92.27
2018-03-23T10:01:46.795Z,92.22
2018-03-23T10:02:46.696Z,91.94
2018-03-23T10:04:39.654Z,92.03
2018-03-23T10:05:39.551Z,92.22
2018-03-23T10:07:32.505Z,92.80
2018-03-23T10:08:32.404Z,92.32
2018-03-23T10:10:25.355Z,92.61
2018-03-23T10:11:25.261Z,91.28
2018-03-23T10:13:18.270Z,91.75
2018-03-23T10:14:18.108Z,92.22
2018-03-23T10:16:11.066Z,91.47
2018-03-23T10:17:10.966Z,91.47
2018-03-23T10:19:03.924Z,91.28
2018-03-23T10:20:03.819Z,90.89
2018-03-23T10:21:56.784Z,90.61
2018-03-23T10:22:56.672Z,90.04
2018-03-23T10:24:49.620Z,90.85
2018-03-23T10:25:49.522Z,90.94
2018-03-23T10:27:42.474Z,90.37
2018-03-23T10:28:42.377Z,90.85
2018-03-23T10:30:35.326Z,90.52
2018-03-23T10:31:35.228Z,90.94
2018-03-23T10:33:28.178Z,90.28
2018-03-23T10:34:28.092Z,90.37
2018-03-23T10:36:21.031Z,90.94
2018-03-23T10:37:20.937Z,90.85
2018-03-23T10:39:13.896Z,90.56
2018-03-23T10:40:13.786Z,90.85
2018-03-23T10:42:06.741Z,90.47
2018-03-23T10:43:06.639Z,90.56
2018-03-23T10:44:59.594Z,90.85
2018-03-23T10:45:59.492Z,90.75
2018-03-23T10:47:52.447Z,91.13
2018-03-23T10:48:52.348Z,91.13
2018-03-23T10:50:45.297Z,91.04
2018-03-23T10:51:45.197Z,90.94
2018-03-23T10:53:38.159Z,91.52
2018-03-23T10:54:38.058Z,92.37
2018-03-23T10:56:31.012Z,92.27
2018-03-23T10:57:30.914Z,91.52
2018-03-23T10:59:23.865Z,91.33
2018-03-23T11:00:23.762Z,91.33
2018-03-23T11:02:16.645Z,91.71
2018-03-23T11:03:16.620Z,91.33
2018-03-23T11:05:09.572Z,91.71
2018-03-23T11:06:09.530Z,91.99
2018-03-23T11:08:02.423Z,92.18
2018-03-23T11:09:02.323Z,92.08
2018-03-23T11:10:55.274Z,92.37
2018-03-23T11:11:55.174Z,92.18
2018-03-23T11:13:48.128Z,91.52
2018-03-23T11:14:48.025Z,92.08
2018-03-23T11:16:40.981Z,91.23
2018-03-23T11:17:40.889Z,91.52
2018-03-23T11:19:33.834Z,92.18
2018-03-23T11:20:33.737Z,92.27
2018-03-23T11:22:26.688Z,91.99
2018-03-23T11:23:26.596Z,91.99
2018-03-23T11:25:19.538Z,91.71
2018-03-23T11:26:19.444Z,92.37
2018-03-23T11:28:12.397Z,91.52
2018-03-23T11:29:12.293Z,91.89
2018-03-23T11:31:05.244Z,92.08
2018-03-23T11:32:05.144Z,91.80
2018-03-23T11:33:58.098Z,91.80
2018-03-23T11:34:58.002Z,91.71
2018-03-23T11:36:50.952Z,91.33
2018-03-23T11:37:50.852Z,91.71
2018-03-23T11:39:43.807Z,90.37
2018-03-23T11:40:43.709Z,90.56
2018-03-23T11:42:36.660Z,90.85
2018-03-23T11:43:36.558Z,90.85
2018-03-23T11:45:29.511Z,90.94
2018-03-23T11:46:29.412Z,91.13
2018-03-23T11:48:22.366Z,90.19
2018-03-23T11:49:22.265Z,90.09
2018-03-23T11:51:15.216Z,90.19
2018-03-23T11:52:15.113Z,90.75
2018-03-23T11:54:08.069Z,89.90
2018-03-23T11:55:07.977Z,90.66
2018-03-23T11:57:00.922Z,90.37
2018-03-23T11:58:00.820Z,90.56
2018-03-23T11:59:53.983Z,90.85
2018-03-23T12:00:53.775Z,91.13
2018-03-23T12:02:46.939Z,91.04
2018-03-23T12:03:46.737Z,91.33
2018-03-23T12:05:39.688Z,92.18
2018-03-23T12:06:39.589Z,91.52
2018-03-23T12:08:32.747Z,90.09
2018-03-23T12:09:32.537Z,90.37
2018-03-23T12:11:25.598Z,90.37
2018-03-23T12:12:25.396Z,90.00
2018-03-23T12:14:18.498Z,89.90
2018-03-23T12:15:18.348Z,90.28
2018-03-23T12:17:11.507Z,89.61
2018-03-23T12:18:11.306Z,90.28
2018-03-23T12:20:04.266Z,90.00
2018-03-23T12:21:04.157Z,90.00
2018-03-23T12:22:57.628Z,90.19
2018-03-23T12:23:57.515Z,90.19
2018-03-23T12:25:50.687Z,90.66
2018-03-23T12:26:50.477Z,90.37
2018-03-23T12:28:43.641Z,90.09
2018-03-23T12:29:43.431Z,90.28
2018-03-23T12:31:36.595Z,90.19
2018-03-23T12:32:36.385Z,89.90
2018-03-23T12:34:29.547Z,89.23
2018-03-23T12:35:29.332Z,90.00
2018-03-23T12:37:22.508Z,89.04
2018-03-23T12:38:22.299Z,89.80
2018-03-23T12:40:15.469Z,89.42
2018-03-23T12:41:15.249Z,89.71
2018-03-23T12:43:08.414Z,90.28
2018-03-23T12:44:08.206Z,89.80
2018-03-23T12:46:01.266Z,89.71
2018-03-23T12:47:01.155Z,90.37
2018-03-23T12:48:54.223Z,89.42
2018-03-23T12:49:54.113Z,89.14
2018-03-23T12:51:47.179Z,89.04
2018-03-23T12:52:47.072Z,88.95
2018-03-23T12:54:40.030Z,90.00
2018-03-23T12:55:39.929Z,89.90
2018-03-23T12:57:32.886Z,89.42
2018-03-23T12:58:32.783Z,89.33
2018-03-23T13:00:25.741Z,89.14
2018-03-23T13:01:25.645Z,89.04
2018-03-23T13:03:18.530Z,89.42
2018-03-23T13:04:18.490Z,89.23
2018-03-23T13:06:12.467Z,89.14
2018-03-23T13:07:11.341Z,89.42
2018-03-23T13:09:04.298Z,90.37
2018-03-23T13:10:04.191Z,90.09
2018-03-23T13:11:57.134Z,89.23
2018-03-23T13:12:57.049Z,89.71
2018-03-23T13:14:50.023Z,90.28
2018-03-23T13:15:49.904Z,90.37
2018-03-23T13:17:42.852Z,90.85
2018-03-23T13:18:42.750Z,90.66
2018-03-23T13:20:35.813Z,90.85
2018-03-23T13:21:35.709Z,90.66
2018-03-23T13:23:28.668Z,90.19
2018-03-23T13:24:28.561Z,90.09
2018-03-23T13:26:21.620Z,90.37
2018-03-23T13:27:21.513Z,90.00
2018-03-23T13:29:14.473Z,90.37
2018-03-23T13:30:14.394Z,90.56
2018-03-23T13:32:07.430Z,90.37
2018-03-23T13:33:07.323Z,89.90
2018-03-23T13:35:00.377Z,90.56
2018-03-23T13:36:00.277Z,90.19
2018-03-23T13:37:53.345Z,89.80
2018-03-23T13:38:53.234Z,90.19
2018-03-23T13:40:46.394Z,89.61
2018-03-23T13:41:46.191Z,89.71
2018-03-23T13:43:39.353Z,89.90
2018-03-23T13:44:39.203Z,90.00
2018-03-23T13:46:32.114Z,89.71
2018-03-23T13:47:32.005Z,89.71
2018-03-23T13:49:24.957Z,89.42
2018-03-23T13:50:24.937Z,89.42
2018-03-23T13:52:17.806Z,90.47
2018-03-23T13:53:17.707Z,90.37
2018-03-23T13:55:10.659Z,89.61
2018-03-23T13:56:10.582Z,88.76
2018-03-23T13:58:04.572Z,90.00
2018-03-23T13:59:03.410Z,89.71
2018-03-23T14:00:57.395Z,89.80
2018-03-23T14:01:56.268Z,89.52
2018-03-23T14:03:49.222Z,89.61
2018-03-23T14:04:49.116Z,89.23
2018-03-23T14:06:42.075Z,89.90
2018-03-23T14:07:41.969Z,89.42
2018-03-23T14:09:34.928Z,89.42
2018-03-23T14:10:34.824Z,89.71
2018-03-23T14:12:27.780Z,88.95
2018-03-23T14:13:27.676Z,89.80
2018-03-23T14:15:20.636Z,90.00
2018-03-23T14:16:20.529Z,89.61
2018-03-23T14:18:13.486Z,89.42
2018-03-23T14:19:13.388Z,89.61
2018-03-23T14:21:06.337Z,88.76
2018-03-23T14:22:06.234Z,88.85
2018-03-23T14:23:59.189Z,88.00
2018-03-23T14:24:59.097Z,87.43
2018-03-23T14:26:52.043Z,87.90
2018-03-23T14:27:51.942Z,87.90
2018-03-23T14:29:44.896Z,88.28
2018-03-23T14:30:44.793Z,88.09
2018-03-23T14:32:37.750Z,87.81
2018-03-23T14:33:37.646Z,87.90
2018-03-23T14:35:30.602Z,88.57
2018-03-23T14:36:30.497Z,87.81
2018-03-23T14:38:23.454Z,86.90
2018-03-23T14:39:23.357Z,86.86
2018-03-23T14:41:16.360Z,86.29
2018-03-23T14:42:16.209Z,86.99
2018-03-23T14:44:09.161Z,86.99
2018-03-23T14:45:09.062Z,86.99
2018-03-23T14:47:02.611Z,86.90
2018-03-23T14:48:01.914Z,87.09
2018-03-23T14:49:54.881Z,87.19
2018-03-23T14:50:54.768Z,87.38
2018-03-23T14:52:47.660Z,87.47
2018-03-23T14:53:47.617Z,87.28
2018-03-23T14:55:40.574Z,87.95
2018-03-23T14:56:40.472Z,87.95
2018-03-23T14:58:33.424Z,86.80
2018-03-23T14:59:33.326Z,87.09
2018-03-23T15:01:26.278Z,86.90
2018-03-23T15:02:26.194Z,86.99
2018-03-23T15:04:19.065Z,86.24
2018-03-23T15:05:19.031Z,86.61
2018-03-23T15:07:12.013Z,86.90
2018-03-23T15:08:11.887Z,87.09
2018-03-23T15:10:04.837Z,86.24
2018-03-23T15:11:04.741Z,86.33
2018-03-23T15:12:57.691Z,85.76
2018-03-23T15:13:57.595Z,86.14
2018-03-23T15:15:50.545Z,86.33
2018-03-23T15:16:50.442Z,86.33
2018-03-23T15:18:43.400Z,85.47
2018-03-23T15:19:43.306Z,85.86
2018-03-23T15:21:36.252Z,86.05
2018-03-23T15:22:36.151Z,86.24
2018-03-23T15:24:29.106Z,85.86
2018-03-23T15:25:29.003Z,86.61
2018-03-23T15:27:21.958Z,86.24
2018-03-23T15:28:21.863Z,86.52
2018-03-23T15:30:14.825Z,85.57
2018-03-23T15:31:14.712Z,86.05
2018-03-23T15:33:07.659Z,85.57
2018-03-23T15:34:07.561Z,86.24
2018-03-23T15:36:00.473Z,85.47
2018-03-23T15:37:00.429Z,86.43
2018-03-23T15:38:53.365Z,85.76
2018-03-23T15:39:53.273Z,85.57
2018-03-23T15:41:46.222Z,86.05
2018-03-23T15:42:46.118Z,85.95
2018-03-23T15:44:39.071Z,86.24
2018-03-23T15:45:38.972Z,86.14
2018-03-23T15:47:31.924Z,86.61
2018-03-23T15:48:31.826Z,86.80
2018-03-23T15:50:24.779Z,86.61
2018-03-23T15:51:24.684Z,87.28
2018-03-23T15:53:18.659Z,86.61
2018-03-23T15:54:17.533Z,86.43
2018-03-23T15:56:10.483Z,86.90
2018-03-23T15:57:10.374Z,87.19
2018-03-23T15:59:03.347Z,86.80
2018-03-23T16:00:03.241Z,86.61
2018-03-23T16:01:56.211Z,86.90
2018-03-23T16:02:56.092Z,86.61
2018-03-23T16:04:49.067Z,86.52
2018-03-23T16:05:48.944Z,86.71
2018-03-23T16:07:41.900Z,86.71
2018-03-23T16:08:41.797Z,86.33
2018-03-23T16:10:34.757Z,86.71
2018-03-23T16:11:34.648Z,86.52
2018-03-23T16:13:27.711Z,86.52
2018-03-23T16:14:27.510Z,86.71
2018-03-23T16:16:20.561Z,86.43
2018-03-23T16:17:20.456Z,86.90
2018-03-23T16:19:13.757Z,86.24
2018-03-23T16:20:13.722Z,86.14
2018-03-23T16:22:06.880Z,86.43
2018-03-23T16:23:06.679Z,86.05
2018-03-23T16:24:59.634Z,86.43
2018-03-23T16:25:59.530Z,85.66
2018-03-23T16:27:52.588Z,86.43
2018-03-23T16:28:52.481Z,86.71
2018-03-23T16:30:45.544Z,86.61
2018-03-23T16:31:45.339Z,86.33
2018-03-23T16:33:38.395Z,86.61
2018-03-23T16:34:38.199Z,86.80
2018-03-23T16:36:31.196Z,86.61
2018-03-23T16:37:31.047Z,87.19
2018-03-23T16:39:24.001Z,86.99
2018-03-23T16:40:23.906Z,86.99
2018-03-23T16:42:16.856Z,87.09
2018-03-23T16:43:16.753Z,87.19
2018-03-23T16:45:09.917Z,87.38
2018-03-23T16:46:09.705Z,87.76
2018-03-23T16:48:02.866Z,87.95
2018-03-23T16:49:02.661Z,87.95
2018-03-23T16:50:55.712Z,87.85
2018-03-23T16:51:55.621Z,87.76
2018-03-23T16:53:48.573Z,87.28
2018-03-23T16:54:48.473Z,87.47
2018-03-23T16:56:41.425Z,87.85
2018-03-23T16:57:41.325Z,87.66
2018-03-23T16:59:34.277Z,88.13
2018-03-23T17:00:34.181Z,88.33
2018-03-23T17:02:27.130Z,88.19
2018-03-23T17:03:27.032Z,88.19
2018-03-23T17:05:19.984Z,88.76
2018-03-23T17:06:19.883Z,88.67
2018-03-23T17:08:12.943Z,88.85
2018-03-23T17:09:12.857Z,88.80
2018-03-23T17:11:05.790Z,89.42
2018-03-23T17:12:05.688Z,88.47
2018-03-23T17:13:58.643Z,89.04
2018-03-23T17:14:58.545Z,89.33
2018-03-23T17:16:51.502Z,89.23
2018-03-23T17:17:51.398Z,88.95
2018-03-23T17:19:44.354Z,88.85
2018-03-23T17:20:44.267Z,89.23
2018-03-23T17:22:37.216Z,89.61
2018-03-23T17:23:37.102Z,89.42
2018-03-23T17:25:30.060Z,89.61
2018-03-23T17:26:29.957Z,89.23
2018-03-23T17:28:22.925Z,88.85
2018-03-23T17:29:22.823Z,88.95
2018-03-23T17:31:15.772Z,89.33
2018-03-23T17:32:15.664Z,89.33
2018-03-23T17:34:08.628Z,89.04
2018-03-23T17:35:08.515Z,89.04
2018-03-23T17:37:01.476Z,89.23
2018-03-23T17:38:01.367Z,89.23
2018-03-23T17:39:54.264Z,89.04
2018-03-23T17:40:54.312Z,89.33
2018-03-23T17:42:47.174Z,89.14
2018-03-23T17:43:47.073Z,89.14
2018-03-23T17:45:40.032Z,88.95
2018-03-23T17:46:39.926Z,89.52
2018-03-23T17:48:32.824Z,89.80
2018-03-23T17:49:32.791Z,90.00
2018-03-23T17:51:25.841Z,90.09
2018-03-23T17:52:25.773Z,90.09
2018-03-23T17:54:18.792Z,90.09
2018-03-23T17:55:18.648Z,90.09
2018-03-23T17:57:11.550Z,90.37
2018-03-23T17:58:11.452Z,90.19
2018-03-23T18:00:04.604Z,90.09
2018-03-23T18:01:04.482Z,90.56
2018-03-23T18:02:57.354Z,90.19
2018-03-23T18:03:57.257Z,90.19
2018-03-23T18:05:50.205Z,90.85
2018-03-23T18:06:50.105Z,90.75
2018-03-23T18:08:43.057Z,90.56
2018-03-23T18:09:42.956Z,90.66
2018-03-23T18:11:35.914Z,90.66
2018-03-23T18:12:35.821Z,90.75
2018-03-23T18:14:28.767Z,90.47
2018-03-23T18:15:28.666Z,91.13
2018-03-23T18:17:21.615Z,90.94
2018-03-23T18:18:21.536Z,90.94
2018-03-23T18:20:14.470Z,90.75
2018-03-23T18:21:14.372Z,91.04
2018-03-23T18:23:07.326Z,90.37
2018-03-23T18:24:07.238Z,91.13
2018-03-23T18:26:00.177Z,90.66
2018-03-23T18:27:00.080Z,90.94
2018-03-23T18:28:53.029Z,90.75
2018-03-23T18:29:52.933Z,91.04
2018-03-23T18:31:45.880Z,91.13
2018-03-23T18:32:45.781Z,91.04
2018-03-23T18:34:38.735Z,91.61